createdAt,value
2022-09-06T00:00:19.568Z,18.100334448160535
2022-09-06T00:06:41.277Z,18.244147157190636
2022-09-06T00:13:03.273Z,18.51505016722408
2022-09-06T00:19:25.450Z,18.474916387959865
2022-09-06T00:25:53.284Z,18.434782608695652
2022-09-06T00:34:15.930Z,19.307692307692307
2022-09-06T00:40:37.574Z,18.274247491638796
2022-09-06T00:46:59.443Z,18.551839464882942
2022-09-06T00:57:08.334Z,19.107023411371237
2022-09-06T01:03:30.667Z,18.421404682274247
2022-09-06T01:12:58.877Z,18.464882943143813
2022-09-06T01:19:20.578Z,18.8561872909699
2022-09-06T01:29:19.083Z,19.581939799331103
2022-09-06T01:35:40.736Z,19.274247491638796
2022-09-06T01:42:02.671Z,19.775919732441473
2022-09-06T01:48:30.290Z,20.103678929765888
2022-09-06T01:57:57.462Z,20.08026755852843
2022-09-06T02:04:19.297Z,20.00334448160535
2022-09-06T02:16:56.296Z,20.414715719063544
2022-09-06T02:23:21.944Z,20.046822742474916
2022-09-06T02:30:12.922Z,20.535117056856187
2022-09-06T02:36:34.613Z,20.130434782608695
2022-09-06T02:44:23.242Z,20.19732441471572
2022-09-06T02:50:44.710Z,20.331103678929765
2022-09-06T02:58:41.337Z,20.240802675585286
2022-09-06T03:06:52.625Z,21.0
2022-09-06T03:19:34.089Z,20.926421404682273
2022-09-06T03:26:04.849Z,20.357859531772576
2022-09-06T03:32:26.673Z,20.361204013377925
2022-09-06T03:41:48.829Z,21.05351170568562
2022-09-06T03:48:10.782Z,20.528428093645484
2022-09-06T03:54:32.383Z,20.210702341137125
2022-09-06T04:00:53.927Z,19.67558528428094
2022-09-06T04:07:15.508Z,19.926421404682273
2022-09-06T04:13:37.063Z,18.926421404682273
2022-09-06T04:19:58.682Z,19.45819397993311
2022-09-06T04:26:33.231Z,19.391304347826086
2022-09-06T04:32:55.061Z,18.806020066889634
2022-09-06T04:39:16.729Z,19.123745819397993
2022-09-06T04:45:38.517Z,19.224080267558527
2022-09-06T04:52:04.256Z,18.94314381270903
2022-09-06T04:58:41.467Z,19.347826086956523
2022-09-06T05:05:02.864Z,19.528428093645484
2022-09-06T05:11:24.577Z,18.816053511705686
2022-09-06T05:17:46.176Z,19.448160535117058
2022-09-06T05:24:17.591Z,18.100334448160535
2022-09-06T05:36:11.494Z,18.45484949832776
2022-09-06T05:43:45.031Z,17.812709030100333
2022-09-06T05:54:43.703Z,17.755852842809364
2022-09-06T06:04:39.210Z,18.066889632107024
2022-09-06T06:11:01.713Z,17.384615384615383
2022-09-06T06:17:23.213Z,18.401337792642142
2022-09-06T06:23:55.157Z,18.234113712374583
2022-09-06T06:38:37.256Z,17.816053511705686
2022-09-06T06:44:59.166Z,16.438127090301002
2022-09-06T06:51:20.406Z,17.297658862876254
2022-09-06T07:02:51.715Z,15.963210702341136
2022-09-06T07:09:13.165Z,15.909698996655518
2022-09-06T07:26:16.699Z,16.070234113712374
2022-09-06T07:32:38.703Z,16.926421404682273
2022-09-06T07:54:19.417Z,14.518394648829432
2022-09-06T08:00:52.176Z,16.414715719063544
2022-09-06T08:07:40.136Z,15.983277591973245
2022-09-06T08:18:21.360Z,15.836120401337793
2022-09-06T08:26:02.840Z,15.618729096989966
2022-09-06T08:35:16.013Z,15.698996655518394
2022-09-06T08:51:50.789Z,14.752508361204013
2022-09-06T09:02:28.681Z,15.270903010033445
2022-09-06T09:08:52.001Z,15.478260869565217
2022-09-06T09:15:15.557Z,14.414715719063546
2022-09-06T09:21:37.881Z,14.220735785953178
2022-09-06T09:28:08.348Z,14.822742474916389
2022-09-06T09:34:35.666Z,14.444816053511706
2022-09-06T09:41:11.442Z,14.511705685618729
2022-09-06T09:47:33.115Z,13.454849498327759
2022-09-06T09:56:34.392Z,13.66220735785953
2022-09-06T10:02:58.728Z,12.538461538461538
2022-09-06T10:13:40.160Z,13.107023411371237
2022-09-06T10:20:05.919Z,14.782608695652174
2022-09-06T10:27:01.071Z,13.351170568561873
2022-09-06T10:33:23.585Z,13.511705685618729
2022-09-06T10:42:18.829Z,15.33779264214047
2022-09-06T10:48:41.471Z,16.244147157190636
2022-09-06T10:55:03.111Z,19.096989966555185
2022-09-06T11:01:24.893Z,17.692307692307693
2022-09-06T11:14:38.042Z,17.74247491638796
2022-09-06T11:21:00.227Z,18.317725752508363
2022-09-06T11:45:36.113Z,17.695652173913043
2022-09-06T11:51:58.157Z,17.190635451505017
2022-09-06T11:58:20.646Z,17.25752508361204
2022-09-06T12:04:42.760Z,16.42809364548495
2022-09-06T12:11:04.876Z,16.193979933110366
2022-09-06T12:22:53.550Z,15.234113712374581
2022-09-06T12:29:17.277Z,15.705685618729097
2022-09-06T12:35:58.151Z,14.789297658862877
2022-09-06T12:42:24.600Z,14.692307692307692
2022-09-06T12:48:46.419Z,14.414715719063546
2022-09-06T12:55:07.851Z,15.321070234113712
2022-09-06T13:01:29.691Z,14.698996655518394
2022-09-06T13:07:52.187Z,14.752508361204013
2022-09-06T13:14:14.521Z,14.387959866220736
2022-09-06T13:25:36.939Z,13.478260869565217
2022-09-06T13:32:03.731Z,13.31438127090301
2022-09-06T13:38:36.361Z,12.822742474916389
2022-09-06T13:48:03.510Z,11.876254180602007
2022-09-06T13:54:44.104Z,12.224080267558529
2022-09-06T14:05:10.772Z,12.0
2022-09-06T14:11:37.727Z,13.207357859531772
2022-09-06T14:18:00.319Z,11.678929765886288
2022-09-06T14:24:31.903Z,11.762541806020067
2022-09-06T14:30:56.035Z,11.461538461538462
2022-09-06T14:42:50.820Z,12.648829431438127
2022-09-06T14:51:27.090Z,13.478260869565217
2022-09-06T14:58:45.185Z,13.862876254180602
2022-09-06T15:05:42.398Z,14.431438127090301
2022-09-06T15:23:42.140Z,13.698996655518394
2022-09-06T15:30:04.161Z,14.327759197324415
2022-09-06T15:36:27.823Z,13.826086956521738
2022-09-06T15:43:18.788Z,12.96989966555184
2022-09-06T15:49:41.027Z,13.153846153846153
2022-09-06T15:56:04.560Z,13.023411371237458
2022-09-06T16:02:32.198Z,12.812709030100335
2022-09-06T16:08:55.805Z,12.822742474916389
2022-09-06T16:15:18.753Z,13.635451505016722
2022-09-06T16:21:44.289Z,13.668896321070234
2022-09-06T16:28:18.923Z,13.023411371237458
2022-09-06T16:34:52.175Z,13.588628762541806
2022-09-06T16:41:21.214Z,13.96989966555184
2022-09-06T16:47:47.100Z,13.053511705685619
2022-09-06T16:54:15.368Z,13.836120401337793
2022-09-06T17:00:40.851Z,13.341137123745819
2022-09-06T17:07:06.181Z,13.25752508361204
2022-09-06T17:13:30.772Z,12.702341137123746
2022-09-06T17:19:55.737Z,12.31772575250836
2022-09-06T17:26:26.533Z,12.719063545150501
2022-09-06T17:33:13.874Z,13.511705685618729
2022-09-06T17:40:42.067Z,13.133779264214047
2022-09-06T17:47:13.362Z,12.237458193979933
2022-09-06T17:53:36.252Z,16.277591973244146
2022-09-06T17:59:59.230Z,12.963210702341136
2022-09-06T18:11:17.523Z,14.511705685618729
2022-09-06T18:17:39.152Z,13.217391304347826
2022-09-06T18:24:12.581Z,14.210702341137123
2022-09-06T18:36:09.877Z,14.247491638795987
2022-09-06T18:42:32.368Z,15.341137123745819
2022-09-06T18:48:57.025Z,15.040133779264215
2022-09-06T18:55:23.216Z,15.153846153846153
2022-09-06T19:01:48.395Z,14.963210702341136
2022-09-06T19:10:34.678Z,15.361204013377927
2022-09-06T19:17:01.088Z,15.672240802675585
2022-09-06T19:23:31.173Z,15.31438127090301
2022-09-06T19:32:00.667Z,17.163879598662206
2022-09-06T19:39:01.452Z,18.983277591973245
2022-09-06T19:45:31.285Z,16.03010033444816
2022-09-06T19:52:02.065Z,17.76923076923077
2022-09-06T19:58:39.034Z,17.153846153846153
2022-09-06T20:05:09.001Z,17.45484949832776
2022-09-06T20:11:40.134Z,17.79933110367893
2022-09-06T20:18:11.823Z,18.34448160535117
2022-09-06T20:24:40.229Z,17.214046822742475
2022-09-06T20:31:03.910Z,16.74247491638796
2022-09-06T20:41:07.184Z,17.05351170568562
2022-09-06T20:47:33.558Z,17.434782608695652
2022-09-06T20:55:10.446Z,18.32441471571906
2022-09-06T21:03:43.358Z,17.82608695652174
2022-09-06T21:10:04.844Z,17.842809364548494
2022-09-06T21:16:26.329Z,18.220735785953178
2022-09-06T21:22:49.066Z,18.351170568561873
2022-09-06T21:29:14.600Z,17.612040133779264
2022-09-06T21:35:36.303Z,17.872909698996654
2022-09-06T21:44:34.436Z,18.351170568561873
2022-09-06T21:59:50.301Z,18.762541806020067
2022-09-06T22:06:12.487Z,18.347826086956523
2022-09-06T22:12:33.246Z,19.54180602006689
2022-09-06T22:18:54.402Z,19.160535117056856
2022-09-06T22:29:53.495Z,18.548494983277592
2022-09-06T22:37:32.804Z,19.03344481605351
2022-09-06T22:52:59.134Z,19.431438127090303
2022-09-06T22:59:20.759Z,18.434782608695652
2022-09-06T23:05:41.531Z,19.244147157190636
2022-09-06T23:12:02.766Z,20.036789297658864
2022-09-06T23:18:24.019Z,18.99665551839465
2022-09-06T23:24:53.647Z,18.91638795986622
2022-09-06T23:31:14.568Z,19.48494983277592
2022-09-06T23:39:57.585Z,20.264214046822744
2022-09-06T23:51:43.534Z,19.52173913043478
2022-09-06T23:58:04.477Z,20.327759197324415
